Puerto Banus, Marbella

>

This is an optional block (switch it off / on) in the settings - file ($SITE['banners'] = false;)

You can display ads, any other important text or photo’s using text / html or PHP code.

You can place one or more at the top and or bottom and it can all be different for content / size .



Meteosat more information blitzortung!


Radar lluvias  rain snow radar


Visita nuestra red de sitios de meteo:

Documentation for the template used

MeteoibericaRed estaciones Meteorologicas

MeteoclimaticRed estaciones Meteorologicas



Sin Advertencias climatologicas .En este momento tenemos Nivel Verde.    No hay Alarmas

Pagina Historial Weather Underground texto

Diario Resumen Diciembre 31, 2017 Unidades:  impérial    Métrico   Tanto
« Anterior Dia
Siguiente Dia »
Diario Semana Mensual Anual Personalizada
  Maxima: Minima: Media:
Temperatura: 67.6 °F 52.5 °F 59.5 °F
Punto de rocío: 55.2 °F 46.8 °F 50.5 °F
Humedad: 83 % 54 % 73 %
Velocidad del Viento: 21.9 mph 0 mph 9.1 mph
Ráfagas de viento: 21.9 mph - -
Viento:- - West
Pression baro: 30.4 in 30.2 in -
Précipitaciones: 0 in    
Historical Graphs
 
 
Datos de tabla para Diciembre 31, 2017
Tiempo Temperatura Punto de rocío Pression baro Viento Velocidad del Viento Ráfagas de viento Humedad Las precipitaciones Rate ( Hora )
00:03 55.4 °F 50.4 °F 30.3 in North 5.8 mph 5.8 mph 83 % 0 in
00:04 55.4 °F 50.4 °F 30.3 in North 6.9 mph 6.9 mph 83 % 0 in
00:09 55.6 °F 50.2 °F 30.3 in North 9.2 mph 9.2 mph 82 % 0 in
00:11 55.6 °F 50.2 °F 30.3 in North 8.1 mph 8.1 mph 82 % 0 in
00:15 55.8 °F 50.4 °F 30.3 in North 6.9 mph 6.9 mph 82 % 0 in
00:16 55.8 °F 50.4 °F 30.3 in North 8.1 mph 8.1 mph 82 % 0 in
00:21 55.6 °F 50.2 °F 30.3 in North 8.1 mph 8.1 mph 82 % 0 in
00:22 55.6 °F 50.2 °F 30.3 in North 8.1 mph 8.1 mph 82 % 0 in
00:26 55.6 °F 50.2 °F 30.3 in North 8.1 mph 8.1 mph 82 % 0 in
00:28 55.6 °F 50.2 °F 30.3 in NNW 8.1 mph 8.1 mph 82 % 0 in
00:33 55.4 °F 50 °F 30.3 in North 6.9 mph 6.9 mph 82 % 0 in
00:34 55.4 °F 50 °F 30.3 in North 6.9 mph 6.9 mph 82 % 0 in
00:39 55.4 °F 50 °F 30.3 in North 5.8 mph 5.8 mph 82 % 0 in
00:44 55.6 °F 49.8 °F 30.3 in North 6.9 mph 6.9 mph 81 % 0 in
00:48 55.6 °F 49.8 °F 30.3 in North 7 mph 7 mph 81 % 0 in
00:53 55.6 °F 49.8 °F 30.3 in North 7 mph 7 mph 81 % 0 in
00:54 55.6 °F 49.8 °F 30.3 in NNW 6.9 mph 6.9 mph 81 % 0 in
00:59 55.6 °F 49.8 °F 30.3 in NNW 6 mph 6 mph 81 % 0 in
01:00 55.6 °F 49.8 °F 30.3 in NNW 6 mph 6 mph 81 % 0 in
01:01 55.6 °F 49.8 °F 30.3 in North 6.9 mph 6.9 mph 81 % 0 in
01:06 55.6 °F 49.8 °F 30.3 in North 6.9 mph 6.9 mph 81 % 0 in
01:11 55.6 °F 49.8 °F 30.3 in NNW 5.8 mph 5.8 mph 81 % 0 in
01:12 55.6 °F 49.8 °F 30.3 in NNW 5.8 mph 5.8 mph 81 % 0 in
01:13 55.6 °F 49.8 °F 30.3 in NNW 6 mph 6 mph 81 % 0 in
01:17 55.8 °F 50 °F 30.3 in North 3.5 mph 3.5 mph 81 % 0 in
01:22 55.8 °F 49.6 °F 30.3 in North 5.8 mph 5.8 mph 80 % 0 in
01:24 55.8 °F 49.6 °F 30.3 in North 6 mph 6 mph 80 % 0 in
01:25 55.8 °F 49.6 °F 30.3 in North 5 mph 6 mph 80 % 0 in
01:30 55.6 °F 49.5 °F 30.3 in NNW 5 mph 5 mph 80 % 0 in
01:31 55.4 °F 49.3 °F 30.3 in North 5.8 mph 5.8 mph 80 % 0 in
01:36 55.2 °F 49.5 °F 30.3 in NNW 5.8 mph 5.8 mph 81 % 0 in
01:40 55 °F 49.5 °F 30.3 in North 6 mph 6 mph 81 % 0 in
01:43 55 °F 49.3 °F 30.3 in NNW 5.8 mph 5.8 mph 81 % 0 in
01:45 55 °F 49.3 °F 30.3 in NNW 5.8 mph 5.8 mph 81 % 0 in
01:49 55 °F 49.3 °F 30.3 in NNW 5.8 mph 5.8 mph 81 % 0 in
01:51 55 °F 49.5 °F 30.3 in North 4.6 mph 4.6 mph 81 % 0 in
01:54 55 °F 49.3 °F 30.3 in NNW 6.9 mph 6.9 mph 81 % 0 in
01:56 55 °F 49.3 °F 30.3 in North 8.1 mph 8.1 mph 81 % 0 in
02:01 54.9 °F 49.3 °F 30.3 in North 6 mph 6 mph 81 % 0 in
02:02 54.9 °F 49.3 °F 30.3 in North 6 mph 6 mph 81 % 0 in
02:07 54.7 °F 48.9 °F 30.3 in North 8.1 mph 8.1 mph 81 % 0 in
02:08 54.7 °F 48.9 °F 30.3 in North 8.1 mph 8.1 mph 81 % 0 in
02:13 54.5 °F 49.1 °F 30.3 in NNW 4.6 mph 4.6 mph 82 % 0 in
02:16 54.7 °F 49.3 °F 30.3 in NNW 6 mph 6 mph 82 % 0 in
02:20 54.7 °F 49.3 °F 30.3 in North 5.8 mph 5.8 mph 82 % 0 in
02:23 54.5 °F 49.1 °F 30.3 in North 6 mph 6 mph 82 % 0 in
02:26 54.3 °F 48.9 °F 30.3 in North 6.9 mph 6.9 mph 82 % 0 in
02:28 54.3 °F 48.9 °F 30.3 in North 5.8 mph 5.8 mph 82 % 0 in
02:31 54.3 °F 48.9 °F 30.3 in North 6.9 mph 6.9 mph 82 % 0 in
02:36 54.1 °F 48.7 °F 30.3 in North 5.8 mph 5.8 mph 82 % 0 in
02:41 54.1 °F 48.7 °F 30.3 in North 4 mph 4 mph 82 % 0 in
02:42 54.1 °F 48.7 °F 30.3 in North 4 mph 4 mph 82 % 0 in
02:44 54.1 °F 48.7 °F 30.3 in North 4.6 mph 4.6 mph 82 % 0 in
02:47 54.1 °F 48.7 °F 30.3 in North 5 mph 5 mph 82 % 0 in
02:52 54.1 °F 48.7 °F 30.3 in North 4.6 mph 4.6 mph 82 % 0 in
02:53 54.1 °F 48.7 °F 30.3 in North 5.8 mph 5.8 mph 82 % 0 in
02:54 54.1 °F 48.7 °F 30.3 in North 5.8 mph 5.8 mph 82 % 0 in
02:59 54.1 °F 48.7 °F 30.3 in NNW 5.8 mph 5.8 mph 82 % 0 in
03:04 54.1 °F 48.7 °F 30.3 in NNW 5.8 mph 5.8 mph 82 % 0 in
03:05 54.1 °F 48.7 °F 30.3 in NNW 6.9 mph 6.9 mph 82 % 0 in
03:10 54.1 °F 48.7 °F 30.3 in NW 4.6 mph 4.6 mph 82 % 0 in
03:11 54.1 °F 48.7 °F 30.3 in NW 4.6 mph 4.6 mph 82 % 0 in
03:15 54.3 °F 48.9 °F 30.3 in NW 4.6 mph 4.6 mph 82 % 0 in
03:17 54.3 °F 48.9 °F 30.3 in NNW 4.6 mph 4.6 mph 82 % 0 in
03:22 54.7 °F 49.3 °F 30.3 in NNW 3.5 mph 3.5 mph 82 % 0 in
03:24 54.7 °F 49.3 °F 30.3 in NNW 2.3 mph   82 % 0 in
03:26 54.7 °F 49.3 °F 30.3 in Calm     82 % 0 in
03:29 54.5 °F 49.1 °F 30.3 in NNW 4 mph 4 mph 82 % 0 in
03:34 54.3 °F 48.9 °F 30.3 in North 4.6 mph 4.6 mph 82 % 0 in
03:35 54.3 °F 48.9 °F 30.3 in North 4.6 mph 4.6 mph 82 % 0 in
03:40 54.1 °F 48.7 °F 30.3 in North 6 mph 7 mph 82 % 0 in
03:41 54.1 °F 48.7 °F 30.3 in North 6.9 mph 6.9 mph 82 % 0 in
03:46 54 °F 48.6 °F 30.3 in NNW 5.8 mph 5.8 mph 82 % 0 in
03:51 53.8 °F 48.4 °F 30.3 in NNW 6.9 mph 6.9 mph 82 % 0 in
03:56 53.6 °F 48.6 °F 30.3 in NNW 4.6 mph 4.6 mph 83 % 0 in
03:57 53.6 °F 48.6 °F 30.3 in North 6.9 mph 6.9 mph 83 % 0 in
03:58 53.6 °F 48.6 °F 30.3 in North 6.9 mph 6.9 mph 83 % 0 in
04:03 53.4 °F 48.6 °F 30.3 in North 6.9 mph 6.9 mph 83 % 0 in
04:07 53.6 °F 48.6 °F 30.3 in North 6.9 mph 6.9 mph 83 % 0 in
04:08 53.6 °F 48.6 °F 30.3 in North 5.8 mph 5.8 mph 83 % 0 in
04:14 53.8 °F 48.7 °F 30.3 in North 4.6 mph 4.6 mph 83 % 0 in
04:21 53.8 °F 48.7 °F 30.3 in NNW 5.8 mph 5.8 mph 83 % 0 in
04:24 53.8 °F 48.7 °F 30.3 in NNW 5.8 mph 5.8 mph 83 % 0 in
04:29 54 °F 48.9 °F 30.3 in NNW 5.8 mph 5.8 mph 83 % 0 in
04:34 54 °F 48.9 °F 30.3 in Calm     83 % 0 in
04:36 54 °F 48.9 °F 30.3 in Calm   0.1 mph 83 % 0 in
04:37 54 °F 48.9 °F 30.3 in NNW 1.2 mph   83 % 0 in
04:42 54 °F 48.9 °F 30.3 in NNW 2.3 mph 2.3 mph 83 % 0 in
04:43 54 °F 48.9 °F 30.3 in NNW 2.3 mph 2.3 mph 83 % 0 in
04:44 54 °F 48.6 °F 30.3 in NNW 2.3 mph 2.3 mph 82 % 0 in
04:49 54 °F 48.6 °F 30.3 in NNW 3.5 mph 3.5 mph 82 % 0 in
04:50 54 °F 48.6 °F 30.3 in NNW 3.5 mph 3.5 mph 82 % 0 in
04:54 54 °F 48.6 °F 30.3 in NNW 6.9 mph 6.9 mph 82 % 0 in
04:59 54 °F 48.6 °F 30.3 in NNW 5.8 mph 5.8 mph 82 % 0 in
05:01 54 °F 48.6 °F 30.3 in North 6 mph 6 mph 82 % 0 in
05:05 54 °F 48.6 °F 30.3 in NNW 4.6 mph 4.6 mph 82 % 0 in
05:06 54 °F 48.6 °F 30.3 in North 4.6 mph 4.6 mph 82 % 0 in
05:11 54 °F 48.6 °F 30.3 in North 4.6 mph 4.6 mph 82 % 0 in
05:14 54 °F 48.6 °F 30.2 in NNW 4.6 mph 4.6 mph 82 % 0 in
05:16 54 °F 48.6 °F 30.3 in North 4.6 mph 4.6 mph 82 % 0 in
05:20 53.8 °F 48.4 °F 30.3 in North 5.8 mph 5.8 mph 82 % 0 in
05:25 53.4 °F 48 °F 30.2 in North 6.9 mph 6.9 mph 82 % 0 in
05:28 53.4 °F 48 °F 30.3 in North 7 mph 7 mph 82 % 0 in
05:33 53.2 °F 47.8 °F 30.3 in North 6.9 mph 6.9 mph 82 % 0 in
05:34 53.2 °F 47.8 °F 30.3 in North 6.9 mph 6.9 mph 82 % 0 in
05:39 53.2 °F 47.8 °F 30.3 in North 6.9 mph 6.9 mph 82 % 0 in
05:42 53.2 °F 47.8 °F 30.3 in NNW 6 mph 6 mph 82 % 0 in
05:45 53.2 °F 48.2 °F 30.3 in North 5.8 mph 5.8 mph 83 % 0 in
05:50 53.2 °F 47.8 °F 30.3 in North 4.6 mph 4.6 mph 82 % 0 in
05:51 53.2 °F 47.8 °F 30.3 in North 4.6 mph 4.6 mph 82 % 0 in
05:56 53.2 °F 48.4 °F 30.3 in North 3.5 mph 3.5 mph 83 % 0 in
05:57 53.4 °F 48.4 °F 30.3 in North 4 mph 4 mph 83 % 0 in
06:02 53.2 °F 48.4 °F 30.3 in North 4 mph 4 mph 83 % 0 in
06:06 53.4 °F 48.4 °F 30.3 in North 5.8 mph 5.8 mph 83 % 0 in
06:11 53.2 °F 48.4 °F 30.3 in North 5.8 mph 5.8 mph 83 % 0 in
06:12 53.2 °F 48.4 °F 30.3 in North 4.6 mph 4.6 mph 83 % 0 in
06:13 53.2 °F 48.4 °F 30.3 in North 5 mph 5 mph 83 % 0 in
06:18 53.1 °F 47.7 °F 30.3 in North 4.6 mph 4.6 mph 82 % 0 in
06:19 53.1 °F 47.7 °F 30.3 in North 5.8 mph 5.8 mph 82 % 0 in
06:23 52.9 °F 47.8 °F 30.3 in North 5.8 mph 5.8 mph 83 % 0 in
06:25 52.7 °F 47.7 °F 30.3 in North 5.8 mph 5.8 mph 83 % 0 in
06:28 52.7 °F 47.7 °F 30.3 in North 5.8 mph 5.8 mph 83 % 0 in
06:33 52.7 °F 47.7 °F 30.3 in North 7 mph 7 mph 83 % 0 in
06:37 52.5 °F 47.7 °F 30.3 in NNW 8.1 mph 8.1 mph 83 % 0 in
06:38 52.5 °F 47.7 °F 30.3 in NNW 8.1 mph 8.1 mph 83 % 0 in
06:43 52.5 °F 47.7 °F 30.3 in NNW 3.5 mph 3.5 mph 83 % 0 in
06:44 52.5 °F 47.7 °F 30.3 in NNW 4 mph 4 mph 83 % 0 in
06:49 52.7 °F 47.7 °F 30.3 in North 4 mph 4 mph 83 % 0 in
06:54 52.7 °F 47.7 °F 30.3 in NNW 3.5 mph 3.5 mph 83 % 0 in
06:55 52.7 °F 47.7 °F 30.3 in North 3.5 mph 3.5 mph 83 % 0 in
07:00 52.5 °F 47.7 °F 30.3 in NNW 4.6 mph 4.8 mph 83 % 0 in
07:01 52.5 °F 47.7 °F 30.3 in North 5.8 mph 5.8 mph 83 % 0 in
07:06 52.7 °F 47.7 °F 30.3 in NNW 3.5 mph 3.5 mph 83 % 0 in
07:08 52.7 °F 47.7 °F 30.3 in North 5 mph 5 mph 83 % 0 in
07:11 52.9 °F 47.8 °F 30.3 in North 6 mph 6 mph 83 % 0 in
07:14 52.9 °F 47.8 °F 30.3 in North 8.1 mph 8.1 mph 83 % 0 in
07:17 52.7 °F 47.5 °F 30.3 in North 8.1 mph 8.1 mph 82 % 0 in
07:21 52.7 °F 47.5 °F 30.3 in North 6.9 mph 6.9 mph 82 % 0 in
07:26 52.5 °F 47.3 °F 30.3 in North 7 mph 7 mph 82 % 0 in
07:28 52.5 °F 47.3 °F 30.3 in North 6.9 mph 6.9 mph 82 % 0 in
07:33 52.5 °F 47.3 °F 30.3 in North 6.9 mph 6.9 mph 82 % 0 in
07:35 52.5 °F 47.3 °F 30.3 in North 6.9 mph 6.9 mph 82 % 0 in
07:37 52.7 °F 47.5 °F 30.3 in NNW 5.8 mph 5.8 mph 82 % 0 in
07:40 52.9 °F 47.5 °F 30.3 in NNW 5.8 mph 5.8 mph 82 % 0 in
07:45 53.1 °F 47.5 °F 30.3 in North 4.6 mph 4.6 mph 81 % 0 in
07:46 53.2 °F 47.5 °F 30.3 in NNW 5 mph 5 mph 81 % 0 in
07:48 53.2 °F 47.7 °F 30.3 in North 5.8 mph 5.8 mph 81 % 0 in
07:52 53.4 °F 47.5 °F 30.3 in North 6 mph 6 mph 80 % 0 in
07:56 53.2 °F 47.1 °F 30.3 in NNW 8.1 mph 8.1 mph 80 % 0 in
07:57 53.1 °F 47.1 °F 30.3 in NNW 6.9 mph 6.9 mph 80 % 0 in
08:02 53.1 °F 47.1 °F 30.3 in North 9.2 mph 9.2 mph 80 % 0 in
08:07 53.1 °F 47.1 °F 30.3 in NNW 5.8 mph 5.8 mph 80 % 0 in
08:12 53.1 °F 47.1 °F 30.3 in NNW 3.5 mph 3.5 mph 80 % 0 in
08:13 53.2 °F 47.1 °F 30.3 in NNW 4 mph 4 mph 80 % 0 in
08:16 53.2 °F 47.1 °F 30.3 in North 5 mph 5 mph 80 % 0 in
08:21 53.2 °F 47.1 °F 30.3 in NNW 4 mph 4 mph 80 % 0 in
08:23 53.2 °F 47.7 °F 30.3 in North 4 mph 4 mph 81 % 0 in
08:28 53.2 °F 47.7 °F 30.3 in NNW 3.5 mph 3.5 mph 81 % 0 in
08:29 53.2 °F 47.7 °F 30.3 in NNW 3.5 mph 3.5 mph 81 % 0 in
08:34 53.6 °F 47.8 °F 30.3 in North 4.6 mph 4.6 mph 81 % 0 in
08:36 53.8 °F 48 °F 30.3 in North 4.6 mph 4.6 mph 81 % 0 in
08:40 53.8 °F 47.7 °F 30.3 in North 5.8 mph 5.8 mph 80 % 0 in
08:43 53.8 °F 47.7 °F 30.3 in NNW 5.8 mph 5.8 mph 80 % 0 in
08:45 53.8 °F 47.7 °F 30.3 in NNW 4.6 mph 4.6 mph 80 % 0 in
08:51 53.8 °F 47.7 °F 30.3 in NNW 3.5 mph 3.5 mph 80 % 0 in
08:52 53.8 °F 47.8 °F 30.3 in NNW 3.5 mph 3.5 mph 80 % 0 in
08:57 54.1 °F 48 °F 30.3 in NW 6.9 mph 6.9 mph 80 % 0 in
09:02 54.3 °F 48 °F 30.3 in NW 3.5 mph 3.5 mph 79 % 0 in
09:03 54.5 °F 48 °F 30.3 in NW 4.6 mph 4.6 mph 79 % 0 in
09:08 54.7 °F 48.2 °F 30.3 in NNW 4 mph 4 mph 79 % 0 in
09:13 54.3 °F 47.7 °F 30.3 in North 6 mph 6 mph 78 % 0 in
09:14 54.3 °F 47.3 °F 30.3 in North 6 mph 6 mph 77 % 0 in
09:19 54 °F 46.9 °F 30.3 in NNW 5.8 mph 5.8 mph 77 % 0 in
09:24 53.8 °F 46.8 °F 30.3 in NNW 6 mph 6 mph 77 % 0 in
09:28 53.8 °F 47.1 °F 30.3 in NNW 4.6 mph 4.6 mph 78 % 0 in
09:30 54 °F 47.1 °F 30.3 in North 5 mph 5 mph 78 % 0 in
09:35 54.1 °F 47.5 °F 30.3 in North 4 mph 4 mph 78 % 0 in
09:36 54.1 °F 47.5 °F 30.3 in North 5 mph 5 mph 78 % 0 in
09:40 54.1 °F 47.1 °F 30.3 in North 5 mph 7 mph 77 % 0 in
09:41 54.1 °F 47.1 °F 30.3 in North 5.8 mph 5.8 mph 77 % 0 in
09:44 54.1 °F 47.1 °F 30.3 in North 5.8 mph 5.8 mph 77 % 0 in
09:47 54.1 °F 47.1 °F 30.3 in North 4.6 mph 4.6 mph 77 % 0 in
09:51 54.1 °F 47.1 °F 30.3 in North 5.8 mph 5.8 mph 77 % 0 in
09:52 54.3 °F 47.1 °F 30.3 in North 5.8 mph 5.8 mph 77 % 0 in
09:57 54.3 °F 47.3 °F 30.3 in North 3.5 mph 3.5 mph 77 % 0 in
09:58 54.3 °F 47.3 °F 30.3 in North 3.5 mph 3.5 mph 77 % 0 in
10:03 54.7 °F 47.5 °F 30.3 in North 3.5 mph 3.5 mph 77 % 0 in
10:04 54.7 °F 47.7 °F 30.3 in North 3.5 mph 3.5 mph 77 % 0 in
10:09 54.9 °F 47.5 °F 30.3 in North 4.6 mph 4.6 mph 76 % 0 in
10:10 55 °F 47.7 °F 30.3 in North 5 mph 5 mph 76 % 0 in
10:14 55 °F 47.7 °F 30.3 in North 5.8 mph 5.8 mph 76 % 0 in
10:19 54.9 °F 47.5 °F 30.3 in NNE 5 mph 5 mph 76 % 0 in
10:23 55 °F 47.7 °F 30.3 in NNE 6.9 mph 6.9 mph 76 % 0 in
10:27 55.6 °F 48.4 °F 30.3 in NNE 6.9 mph 6.9 mph 77 % 0 in
10:32 55.9 °F 48.4 °F 30.3 in North 8.1 mph 8.1 mph 76 % 0 in
10:34 55.9 °F 48.6 °F 30.3 in NNE 5.8 mph 5.8 mph 76 % 0 in
10:39 56.1 °F 48.7 °F 30.3 in North 4.6 mph 4.6 mph 76 % 0 in
10:40 56.1 °F 48.7 °F 30.3 in North 5 mph 5 mph 76 % 0 in
10:41 56.1 °F 48.7 °F 30.3 in North 4.6 mph 4.6 mph 76 % 0 in
10:46 56.5 °F 48.9 °F 30.3 in NNE 6.9 mph 6.9 mph 76 % 0 in
10:48 56.5 °F 48.9 °F 30.3 in NNE 4.6 mph 4.6 mph 76 % 0 in
10:51 56.7 °F 49.1 °F 30.3 in North 3.5 mph 3.5 mph 76 % 0 in
10:55 56.8 °F 49.3 °F 30.3 in NNW 5.8 mph 5.8 mph 76 % 0 in
10:57 56.8 °F 49.3 °F 30.3 in NNW 5.8 mph 5.8 mph 76 % 0 in
11:02 57 °F 49.6 °F 30.3 in North 6.9 mph 6.9 mph 76 % 0 in
11:07 57.6 °F 50 °F 30.3 in North 2.3 mph 2.3 mph 76 % 0 in
11:08 57.6 °F 50 °F 30.3 in North 3.5 mph 3.5 mph 76 % 0 in
11:13 57.9 °F 50.4 °F 30.3 in North 3.5 mph 3.5 mph 76 % 0 in
11:14 57.9 °F 50.5 °F 30.3 in North 3.5 mph 3.5 mph 76 % 0 in
11:19 58.3 °F 50 °F 30.3 in North 4.6 mph 4.6 mph 74 % 0 in
11:20 58.3 °F 50 °F 30.3 in North 4.6 mph 4.6 mph 74 % 0 in
11:25 58.6 °F 50 °F 30.3 in North 3.5 mph 3.5 mph 73 % 0 in
11:26 58.6 °F 50 °F 30.3 in North 3.5 mph 3.5 mph 73 % 0 in
11:27 58.6 °F 50.2 °F 30.3 in NNE 3.5 mph 3.5 mph 73 % 0 in
11:32 59.2 °F 50.5 °F 30.3 in NE 3.5 mph 3.5 mph 73 % 0 in
11:34 59.2 °F 50.5 °F 30.3 in NE 3.5 mph 3.5 mph 73 % 0 in
11:37 59.4 °F 51.1 °F 30.3 in NE 3.5 mph 3.5 mph 74 % 0 in
11:39 59.5 °F 51.6 °F 30.3 in NE 4 mph 4 mph 75 % 0 in
11:43 59.7 °F 52.2 °F 30.3 in NE 5.8 mph 5.8 mph 76 % 0 in
11:44 59.9 °F 52.3 °F 30.3 in NE 5.8 mph 5.8 mph 76 % 0 in
11:49 60.3 °F 53.1 °F 30.3 in NE 6 mph 6 mph 77 % 0 in
11:54 60.6 °F 53.1 °F 30.3 in NNE 3.5 mph 3.5 mph 76 % 0 in
11:59 61 °F 53.2 °F 30.3 in NNE 1.2 mph 1.2 mph 76 % 0 in
12:04 61.2 °F 53.6 °F 30.3 in NNE 2.3 mph 2.3 mph 76 % 0 in
12:05 61.3 °F 53.8 °F 30.3 in WSW 4 mph 4 mph 76 % 0 in
12:10 61.9 °F 54.5 °F 30.3 in NE 7 mph 7 mph 77 % 0 in
12:14 62.1 °F 54.3 °F 30.3 in West 5 mph 5 mph 76 % 0 in
12:15 62.1 °F 54.3 °F 30.3 in West 2 mph 11 mph 76 % 0 in
12:20 62.2 °F 54.9 °F 30.3 in WNW 8.1 mph 8.1 mph 77 % 0 in
12:21 62.2 °F 54.9 °F 30.3 in West 8.1 mph 8.1 mph 77 % 0 in
12:26 62.4 °F 54.7 °F 30.3 in WNW 5.8 mph 5.8 mph 76 % 0 in
12:28 62.4 °F 54.9 °F 30.3 in West 5.8 mph 5.8 mph 76 % 0 in
12:31 62.8 °F 54.7 °F 30.3 in WNW 4.6 mph 4.6 mph 75 % 0 in
12:36 63.1 °F 55 °F 30.3 in WSW 6.9 mph 6.9 mph 75 % 0 in
12:38 63.1 °F 54.9 °F 30.3 in West 5.8 mph 5.8 mph 74 % 0 in
12:42 63.1 °F 54.9 °F 30.3 in WSW 12.7 mph 12.7 mph 74 % 0 in
12:45 63.1 °F 55 °F 30.3 in WSW 16.1 mph 16.1 mph 75 % 0 in
12:48 63 °F 55.2 °F 30.3 in West 11.5 mph 11.5 mph 76 % 0 in
12:53 62.8 °F 54.3 °F 30.3 in WSW 16.1 mph 16.1 mph 74 % 0 in
12:54 62.8 °F 54.3 °F 30.3 in WSW 16.1 mph 16.1 mph 74 % 0 in
12:59 63 °F 53.8 °F 30.3 in WSW 16.1 mph 16.1 mph 72 % 0 in
13:04 63.3 °F 53.4 °F 30.3 in West 18.4 mph 18.4 mph 70 % 0 in
13:07 63.7 °F 53.2 °F 30.3 in WSW 19.6 mph 19.6 mph 69 % 0 in
13:12 63.7 °F 53.6 °F 30.3 in SW 19.6 mph 19.6 mph 70 % 0 in
13:13 63.7 °F 53.6 °F 30.3 in WSW 18.4 mph 18.4 mph 70 % 0 in
13:14 63.7 °F 54 °F 30.3 in WSW 17.3 mph 17.3 mph 71 % 0 in
13:19 63.3 °F 53.8 °F 30.3 in WSW 15 mph 15 mph 71 % 0 in
13:20 63.3 °F 53.4 °F 30.3 in WSW 15 mph 15 mph 70 % 0 in
13:25 64 °F 52.3 °F 30.3 in West 19.6 mph 19.6 mph 66 % 0 in
13:30 64.9 °F 52.2 °F 30.3 in West 17.3 mph 17.3 mph 63 % 0 in
13:31 65.1 °F 52.2 °F 30.3 in West 16.1 mph 16.1 mph 63 % 0 in
13:33 65.3 °F 52.3 °F 30.3 in WSW 11.5 mph 11.5 mph 63 % 0 in
13:37 65.7 °F 51.3 °F 30.3 in West 13.8 mph 13.8 mph 60 % 0 in
13:39 65.8 °F 51.4 °F 30.3 in West 17.3 mph 17.3 mph 60 % 0 in
13:43 66.2 °F 51.4 °F 30.3 in WNW 16.1 mph 16.1 mph 59 % 0 in
13:45 66.2 °F 51.4 °F 30.3 in WNW 16.1 mph 16.1 mph 59 % 0 in
13:50 66.4 °F 51.3 °F 30.3 in West 13.8 mph 13.8 mph 58 % 0 in
13:55 66.6 °F 50.7 °F 30.3 in WNW 18.4 mph 18.4 mph 57 % 0 in
13:56 66.6 °F 50.7 °F 30.3 in NW 16.1 mph 16.1 mph 57 % 0 in
14:01 66.6 °F 50.9 °F 30.3 in NW 6.9 mph 6.9 mph 57 % 0 in
14:02 66.6 °F 50.9 °F 30.3 in NW 6.9 mph 6.9 mph 57 % 0 in
14:07 66.7 °F 50.5 °F 30.3 in WNW 16.1 mph 16.1 mph 56 % 0 in
14:08 66.9 °F 50.7 °F 30.3 in West 11.5 mph 11.5 mph 56 % 0 in
14:14 66.9 °F 50.4 °F 30.3 in West 16.1 mph 16.1 mph 55 % 0 in
14:18 66.9 °F 50.4 °F 30.3 in West 16 mph 16 mph 55 % 0 in
14:23 66.9 °F 50.4 °F 30.3 in West 18.4 mph 18.4 mph 55 % 0 in
14:24 66.9 °F 49.8 °F 30.3 in West 18.4 mph 18.4 mph 54 % 0 in
14:27 66.9 °F 50.4 °F 30.3 in West 19.6 mph 19.6 mph 55 % 0 in
14:30 66.9 °F 50.4 °F 30.3 in West 15 mph 15 mph 55 % 0 in
14:35 66.9 °F 49.8 °F 30.3 in WNW 10.4 mph 10.4 mph 54 % 0 in
14:38 66.9 °F 49.8 °F 30.3 in WNW 11.5 mph 11.5 mph 54 % 0 in
14:40 67.1 °F 49.8 °F 30.3 in West 13.8 mph 13.8 mph 54 % 0 in
14:45 66.9 °F 50.4 °F 30.3 in West 12 mph 12 mph 55 % 0 in
14:50 66.9 °F 50.2 °F 30.3 in West 7 mph 7 mph 55 % 0 in
14:55 66.9 °F 50.4 °F 30.3 in West 12.7 mph 12.7 mph 55 % 0 in
14:56 66.9 °F 50.4 °F 30.3 in WNW 12.7 mph 12.7 mph 55 % 0 in
15:01 66.9 °F 50.2 °F 30.3 in WNW 11.5 mph 11.5 mph 55 % 0 in
15:07 66.9 °F 50.2 °F 30.3 in West 9.2 mph 9.2 mph 55 % 0 in
15:11 66.9 °F 50.7 °F 30.3 in West 7 mph 7 mph 56 % 0 in
15:12 66.9 °F 50.7 °F 30.3 in West 9 mph 9 mph 56 % 0 in
15:17 66.7 °F 51.1 °F 30.3 in WSW 8.1 mph 8.1 mph 57 % 0 in
15:21 66.2 °F 52 °F 30.3 in West 11.5 mph 11.5 mph 60 % 0 in
15:22 66.2 °F 52 °F 30.3 in WSW 11.5 mph 11.5 mph 60 % 0 in
15:27 65.8 °F 51.6 °F 30.3 in WSW 10.4 mph 10.4 mph 60 % 0 in
15:29 65.8 °F 52.2 °F 30.3 in West 10.4 mph 10.4 mph 61 % 0 in
15:34 65.8 °F 51.1 °F 30.3 in WNW 4 mph 4.2 mph 59 % 0 in
15:35 65.8 °F 50.7 °F 30.3 in WNW 6.9 mph 6.9 mph 58 % 0 in
15:40 66.4 °F 50.5 °F 30.3 in WNW 8.1 mph 8.1 mph 57 % 0 in
15:41 66.4 °F 50.5 °F 30.3 in WNW 8.1 mph 8.1 mph 57 % 0 in
15:42 66.6 °F 50.4 °F 30.3 in WNW 8.1 mph 8.1 mph 56 % 0 in
15:47 66.7 °F 50.2 °F 30.3 in NW 8.1 mph 8.1 mph 55 % 0 in
15:49 66.9 °F 50.2 °F 30.3 in NW 9.2 mph 9.2 mph 55 % 0 in
15:50 66.9 °F 50.2 °F 30.3 in WNW 9.2 mph 9.2 mph 55 % 0 in
15:55 67.1 °F 50.4 °F 30.3 in West 9.2 mph 9.2 mph 55 % 0 in
15:56 67.1 °F 50.4 °F 30.3 in West 9.2 mph 9.2 mph 55 % 0 in
16:00 67.1 °F 50.9 °F 30.3 in West 10.4 mph 10.4 mph 56 % 0 in
16:01 67.1 °F 50.9 °F 30.3 in West 10.4 mph 10.4 mph 56 % 0 in
16:02 67.1 °F 50.9 °F 30.3 in WNW 8.1 mph 8.1 mph 56 % 0 in
16:07 66.9 °F 50.7 °F 30.3 in West 7 mph 7 mph 56 % 0 in
16:08 66.9 °F 50.7 °F 30.3 in West 8 mph 8 mph 56 % 0 in
16:09 66.9 °F 50.7 °F 30.3 in WNW 9.2 mph 9.2 mph 56 % 0 in
16:13 66.9 °F 50.7 °F 30.3 in NW 8 mph 8 mph 56 % 0 in
16:18 66.9 °F 50.4 °F 30.3 in West 12.7 mph 12.7 mph 55 % 0 in
16:20 66.9 °F 50.4 °F 30.3 in West 12 mph 12 mph 55 % 0 in
16:24 67.1 °F 50.9 °F 30.3 in West 15 mph 15 mph 56 % 0 in
16:26 67.3 °F 50.5 °F 30.3 in WNW 15 mph 15 mph 55 % 0 in
16:29 67.3 °F 51.1 °F 30.3 in West 12.7 mph 12.7 mph 56 % 0 in
16:34 67.5 °F 51.3 °F 30.3 in West 18.4 mph 18.4 mph 56 % 0 in
16:39 67.5 °F 51.6 °F 30.3 in West 13.8 mph 13.8 mph 57 % 0 in
16:40 67.6 °F 51.8 °F 30.3 in WNW 13.8 mph 13.8 mph 57 % 0 in
16:45 67.5 °F 51.6 °F 30.3 in West 13.8 mph 13.8 mph 57 % 0 in
16:50 67.3 °F 52 °F 30.3 in West 14 mph 14 mph 58 % 0 in
16:53 66.9 °F 51.6 °F 30.3 in WSW 18.4 mph 18.4 mph 58 % 0 in
16:58 66.7 °F 52 °F 30.3 in West 17.3 mph 17.3 mph 59 % 0 in
16:59 66.7 °F 52 °F 30.3 in West 17.3 mph 17.3 mph 59 % 0 in
17:01 66.6 °F 51.8 °F 30.3 in West 17.3 mph 17.3 mph 59 % 0 in
17:06 66.4 °F 52.2 °F 30.3 in West 19.6 mph 19.6 mph 60 % 0 in
17:07 66.4 °F 52.2 °F 30.3 in West 15 mph 15 mph 60 % 0 in
17:12 66.2 °F 52 °F 30.3 in West 19.6 mph 19.6 mph 60 % 0 in
17:13 66.2 °F 52 °F 30.3 in WNW 19.6 mph 19.6 mph 60 % 0 in
17:14 66.2 °F 52 °F 30.3 in West 17.3 mph 17.3 mph 60 % 0 in
17:19 66 °F 52.3 °F 30.3 in West 12.7 mph 12.7 mph 61 % 0 in
17:24 66 °F 52.2 °F 30.3 in WNW 18.4 mph 18.4 mph 61 % 0 in
17:25 66 °F 52.2 °F 30.3 in WNW 18.4 mph 18.4 mph 61 % 0 in
17:30 65.8 °F 51.6 °F 30.3 in West 19.6 mph 19.6 mph 60 % 0 in
17:31 66 °F 51.6 °F 30.3 in West 19.6 mph 19.6 mph 60 % 0 in
17:36 66 °F 51.6 °F 30.3 in West 17.3 mph 17.3 mph 60 % 0 in
17:41 65.8 °F 51.6 °F 30.3 in West 16.1 mph 16.1 mph 60 % 0 in
17:42 65.8 °F 51.6 °F 30.3 in West 16.1 mph 16.1 mph 60 % 0 in
17:44 65.8 °F 51.4 °F 30.3 in West 16.1 mph 16.1 mph 60 % 0 in
17:47 65.8 °F 51.1 °F 30.3 in WNW 19.6 mph 19.6 mph 59 % 0 in
17:52 65.8 °F 51.6 °F 30.3 in West 12.7 mph 12.7 mph 60 % 0 in
17:57 65.8 °F 51.1 °F 30.3 in West 17.3 mph 17.3 mph 59 % 0 in
17:58 65.8 °F 51.1 °F 30.3 in West 17.3 mph 17.3 mph 59 % 0 in
18:03 65.8 °F 51.4 °F 30.3 in WSW 15 mph 15 mph 60 % 0 in
18:04 65.8 °F 51.4 °F 30.3 in West 15 mph 15 mph 60 % 0 in
18:09 65.7 °F 51.3 °F 30.3 in West 17.3 mph 17.3 mph 60 % 0 in
18:10 65.7 °F 51.3 °F 30.3 in West 16 mph 16 mph 60 % 0 in
18:14 65.7 °F 51.3 °F 30.3 in West 19 mph 19 mph 60 % 0 in
18:16 65.5 °F 51.3 °F 30.3 in West 19.6 mph 19.6 mph 60 % 0 in
18:21 65.5 °F 51.6 °F 30.3 in West 16 mph 16 mph 61 % 0 in
18:24 65.1 °F 51.4 °F 30.3 in West 15 mph 15 mph 61 % 0 in
18:27 65.1 °F 51.3 °F 30.3 in West 19 mph 19 mph 61 % 0 in
18:29 65.1 °F 51.8 °F 30.3 in WSW 19.6 mph 19.6 mph 62 % 0 in
18:34 65.1 °F 51.8 °F 30.3 in West 17.3 mph 17.3 mph 62 % 0 in
18:37 64.9 °F 51.6 °F 30.3 in West 13 mph 13 mph 62 % 0 in
18:42 64.9 °F 51.6 °F 30.3 in West 16.1 mph 16.1 mph 62 % 0 in
18:43 64.8 °F 51.4 °F 30.3 in WSW 17.3 mph 17.3 mph 62 % 0 in
18:48 64.8 °F 51.4 °F 30.3 in WSW 18.4 mph 18.4 mph 62 % 0 in
18:51 64.8 °F 51.4 °F 30.3 in West 18.4 mph 18.4 mph 62 % 0 in
18:53 64.8 °F 51.8 °F 30.3 in West 18.4 mph 18.4 mph 63 % 0 in
18:58 64.6 °F 51.6 °F 30.3 in West 11.5 mph 11.5 mph 63 % 0 in
18:59 64.6 °F 51.6 °F 30.3 in WNW 11.5 mph 11.5 mph 63 % 0 in
19:04 64.4 °F 52 °F 30.3 in WSW 18.4 mph 18.4 mph 64 % 0 in
19:05 64.4 °F 52.3 °F 30.3 in WSW 17.3 mph 17.3 mph 65 % 0 in
19:07 64.2 °F 52.3 °F 30.3 in WSW 19.6 mph 19.6 mph 65 % 0 in
19:12 64.2 °F 52.7 °F 30.3 in WSW 19.6 mph 19.6 mph 66 % 0 in
19:16 64.2 °F 52.5 °F 30.3 in WSW 13 mph 13 mph 66 % 0 in
19:18 64.2 °F 52.5 °F 30.3 in WSW 15 mph 15 mph 66 % 0 in
19:22 64 °F 52.5 °F 30.3 in SW 16 mph 16 mph 66 % 0 in
19:24 64 °F 52.9 °F 30.3 in West 20.7 mph 20.7 mph 67 % 0 in
19:30 63.9 °F 53.1 °F 30.3 in West 20.7 mph 20.7 mph 68 % 0 in
19:33 63.9 °F 53.4 °F 30.3 in WSW 19.6 mph 19.6 mph 69 % 0 in
19:37 63.7 °F 53.2 °F 30.3 in West 19.6 mph 19.6 mph 69 % 0 in
19:42 63.7 °F 53.6 °F 30.4 in WSW 18.4 mph 18.4 mph 70 % 0 in
19:44 63.7 °F 53.6 °F 30.4 in WSW 19.6 mph 19.6 mph 70 % 0 in
19:48 63.5 °F 53.4 °F 30.4 in WSW 17.3 mph 17.3 mph 70 % 0 in
19:51 63.3 °F 53.8 °F 30.4 in WSW 21.9 mph 21.9 mph 71 % 0 in
19:54 63.3 °F 53.8 °F 30.4 in WSW 19.6 mph 19.6 mph 71 % 0 in
19:56 63.3 °F 53.8 °F 30.4 in WSW 19.6 mph 19.6 mph 71 % 0 in
20:00 63 °F 53.8 °F 30.4 in West 20.7 mph 20.7 mph 72 % 0 in
20:04 63 °F 53.8 °F 30.4 in WSW 15 mph 15 mph 72 % 0 in
20:06 63 °F 54.1 °F 30.4 in West 16.1 mph 16.1 mph 73 % 0 in
20:10 62.8 °F 54 °F 30.4 in West 17.3 mph 17.3 mph 73 % 0 in
20:15 62.8 °F 54.3 °F 30.4 in WSW 18 mph 18 mph 74 % 0 in
20:17 63 °F 54.5 °F 30.4 in West 19.6 mph 19.6 mph 74 % 0 in
20:22 63 °F 54.7 °F 30.4 in WSW 19.6 mph 19.6 mph 74 % 0 in
20:23 63 °F 54.1 °F 30.4 in WSW 19.6 mph 19.6 mph 73 % 0 in
20:28 63 °F 54.1 °F 30.4 in West 12 mph 12 mph 73 % 0 in
20:29 63 °F 54.1 °F 30.4 in West 10.4 mph 10.4 mph 73 % 0 in
20:34 63 °F 54.1 °F 30.4 in West 12.7 mph 12.7 mph 73 % 0 in
20:36 63 °F 54.1 °F 30.4 in West 12.7 mph 12.7 mph 73 % 0 in
20:41 63 °F 54.1 °F 30.4 in West 15 mph 15 mph 73 % 0 in
20:43 63.1 °F 54.3 °F 30.4 in WSW 15 mph 15 mph 73 % 0 in
20:48 63.3 °F 54.5 °F 30.4 in West 15 mph 15 mph 73 % 0 in
20:53 63.3 °F 54.5 °F 30.4 in WSW 11.5 mph 11.5 mph 73 % 0 in
20:54 63.3 °F 54.5 °F 30.4 in West 10.4 mph 10.4 mph 73 % 0 in
20:59 63.3 °F 54.1 °F 30.4 in WSW 15 mph 15 mph 72 % 0 in
21:03 63.3 °F 54.1 °F 30.4 in WSW 15 mph 15 mph 72 % 0 in
21:04 63.3 °F 53.8 °F 30.4 in West 12.7 mph 12.7 mph 71 % 0 in
21:09 63.3 °F 54.1 °F 30.4 in WSW 17.3 mph 17.3 mph 72 % 0 in
21:10 63.3 °F 54.1 °F 30.4 in SW 17.3 mph 17.3 mph 72 % 0 in
21:14 63.3 °F 54.1 °F 30.4 in West 13.8 mph 13.8 mph 72 % 0 in
21:15 63.3 °F 54.1 °F 30.4 in WSW 12.7 mph 12.7 mph 72 % 0 in
21:20 63.3 °F 54.1 °F 30.4 in WSW 12 mph 12 mph 72 % 0 in
21:21 63.3 °F 54.1 °F 30.4 in WSW 14 mph 14 mph 72 % 0 in
21:26 63.1 °F 54 °F 30.4 in WSW 11.5 mph 11.5 mph 72 % 0 in
21:28 63.1 °F 54 °F 30.4 in WSW 11.5 mph 11.5 mph 72 % 0 in
21:33 63.1 °F 53.6 °F 30.4 in West 11.5 mph 11.5 mph 71 % 0 in
21:38 63.1 °F 53.6 °F 30.4 in West 15 mph 15 mph 71 % 0 in
21:40 63.1 °F 53.6 °F 30.4 in WSW 15 mph 15 mph 71 % 0 in
21:45 63.3 °F 53.2 °F 30.4 in WSW 13.8 mph 13.8 mph 70 % 0 in
21:50 63.5 °F 53.4 °F 30.4 in WSW 13.8 mph 13.8 mph 70 % 0 in
21:51 63.5 °F 53.4 °F 30.4 in WSW 13.8 mph 13.8 mph 70 % 0 in
21:56 63.5 °F 53.4 °F 30.4 in West 11 mph 11 mph 70 % 0 in
21:57 63.5 °F 53.4 °F 30.4 in West 13 mph 13 mph 70 % 0 in
22:02 63.5 °F 53.4 °F 30.4 in WSW 11.5 mph 11.5 mph 70 % 0 in
22:03 63.5 °F 53.4 °F 30.4 in West 13 mph 13 mph 70 % 0 in
22:08 63.3 °F 53.8 °F 30.4 in West 12.7 mph 12.7 mph 71 % 0 in
22:13 63.1 °F 53.6 °F 30.4 in WSW 12.7 mph 12.7 mph 71 % 0 in
22:14 63.1 °F 53.6 °F 30.4 in WSW 12.7 mph 12.7 mph 71 % 0 in
22:18 63.1 °F 53.6 °F 30.4 in West 10.4 mph 10.4 mph 71 % 0 in
22:19 63.1 °F 54 °F 30.4 in WSW 8.1 mph 8.1 mph 72 % 0 in
22:24 63.1 °F 53.4 °F 30.4 in West 9.2 mph 9.2 mph 71 % 0 in
22:26 63.1 °F 53.4 °F 30.4 in West 9.2 mph 9.2 mph 71 % 0 in
22:28 63.1 °F 53.2 °F 30.4 in NW 5.8 mph 5.8 mph 70 % 0 in
22:33 63.3 °F 53.1 °F 30.4 in NNW 6.9 mph 6.9 mph 69 % 0 in
22:38 63.3 °F 53.1 °F 30.4 in WNW 2.3 mph 2.3 mph 69 % 0 in
22:39 63.5 °F 53.1 °F 30.4 in West 3.5 mph 3.5 mph 69 % 0 in
22:44 63.5 °F 53.1 °F 30.4 in NW 4.6 mph 4.6 mph 69 % 0 in
22:45 63.5 °F 52.7 °F 30.4 in NNW 6 mph 6 mph 68 % 0 in
22:46 63.5 °F 52.7 °F 30.4 in NNW 5.8 mph 5.8 mph 68 % 0 in
22:51 63.7 °F 52.9 °F 30.4 in West 4.6 mph 4.6 mph 68 % 0 in
22:52 63.7 °F 52.9 °F 30.4 in West 4.6 mph 4.6 mph 68 % 0 in
22:57 63.7 °F 52.5 °F 30.4 in WSW 8.1 mph 8.1 mph 67 % 0 in
23:02 63.7 °F 52.5 °F 30.4 in NW 3.5 mph 3.5 mph 67 % 0 in
23:04 63.9 °F 52.5 °F 30.4 in WSW 5.8 mph 5.8 mph 67 % 0 in
23:09 63.9 °F 52.5 °F 30.4 in West 6.9 mph 6.9 mph 67 % 0 in
23:10 63.9 °F 52.5 °F 30.4 in WSW 5 mph 7 mph 67 % 0 in
23:15 63.9 °F 52.2 °F 30.4 in WSW 6 mph 6 mph 66 % 0 in
23:20 63.9 °F 52.5 °F 30.4 in West 5.8 mph 5.8 mph 67 % 0 in
23:21 63.9 °F 52.5 °F 30.4 in West 7 mph 7 mph 67 % 0 in
23:22 63.9 °F 52.5 °F 30.4 in WSW 9.2 mph 9.2 mph 67 % 0 in
23:27 63.9 °F 52.3 °F 30.4 in West 5.8 mph 5.8 mph 66 % 0 in
23:32 63.9 °F 52.5 °F 30.4 in West 5.8 mph 5.8 mph 67 % 0 in
23:34 63.9 °F 52.5 °F 30.4 in West 5.8 mph 5.8 mph 67 % 0 in
23:39 63.7 °F 51.6 °F 30.4 in NW 5.8 mph 5.8 mph 65 % 0 in
23:40 63.7 °F 51.3 °F 30.4 in WNW 5.8 mph 5.8 mph 64 % 0 in
23:45 63.9 °F 50.5 °F 30.4 in WNW 5.8 mph 5.8 mph 62 % 0 in
23:50 64 °F 51.1 °F 30.4 in NW 4.6 mph 4.6 mph 63 % 0 in
23:51 64 °F 51.1 °F 30.4 in NW 4.6 mph 4.6 mph 63 % 0 in
23:53 63.9 °F 51.1 °F 30.4 in West 7 mph 7 mph 63 % 0 in
23:57 63.9 °F 50.5 °F 30.4 in West 5.8 mph 5.8 mph 62 % 0 in
Puerto Banus, Marbella
Elogios de Weather Underground - 2.25 mb

Guión original por  Jim McMurry - jmcmurry@mwt.net Adaptado para la plantilla por  Wim van der Kuil - Leuven-Template.eu

Usted encontrará nuestra información del tiempo también en:

Weather Underground

Iberian Peninsula Weather Network